sensor_id;sensor_type;location;lat;lon;timestamp;temperature;humidity
12872;DHT22;6504;53.766;9.626;2022-08-25T00:00:20;21.60;99.90
12872;DHT22;6504;53.766;9.626;2022-08-25T00:02:49;21.60;99.90
12872;DHT22;6504;53.766;9.626;2022-08-25T00:05:25;21.60;99.90
12872;DHT22;6504;53.766;9.626;2022-08-25T00:07:56;21.60;99.90
12872;DHT22;6504;53.766;9.626;2022-08-25T00:10:28;21.60;99.90
12872;DHT22;6504;53.766;9.626;2022-08-25T00:12:56;21.60;99.90
12872;DHT22;6504;53.766;9.626;2022-08-25T00:15:24;21.50;99.90
12872;DHT22;6504;53.766;9.626;2022-08-25T00:17:57;21.50;99.90
12872;DHT22;6504;53.766;9.626;2022-08-25T00:20:32;21.60;99.90
12872;DHT22;6504;53.766;9.626;2022-08-25T00:23:01;21.50;99.90
12872;DHT22;6504;53.766;9.626;2022-08-25T00:25:33;21.50;99.90
12872;DHT22;6504;53.766;9.626;2022-08-25T00:28:01;21.50;99.90
12872;DHT22;6504;53.766;9.626;2022-08-25T00:30:34;21.50;99.90
12872;DHT22;6504;53.766;9.626;2022-08-25T00:33:05;21.50;99.90
12872;DHT22;6504;53.766;9.626;2022-08-25T00:35:33;21.50;99.90
12872;DHT22;6504;53.766;9.626;2022-08-25T00:38:05;21.50;99.90
12872;DHT22;6504;53.766;9.626;2022-08-25T00:40:33;21.50;99.90
12872;DHT22;6504;53.766;9.626;2022-08-25T00:43:03;21.50;99.90
12872;DHT22;6504;53.766;9.626;2022-08-25T00:45:32;21.50;99.90
12872;DHT22;6504;53.766;9.626;2022-08-25T00:48:02;21.50;99.90
12872;DHT22;6504;53.766;9.626;2022-08-25T00:50:37;21.50;99.90
12872;DHT22;6504;53.766;9.626;2022-08-25T00:53:07;21.50;99.90
12872;DHT22;6504;53.766;9.626;2022-08-25T00:55:39;21.40;99.90
12872;DHT22;6504;53.766;9.626;2022-08-25T00:58:15;21.40;99.90
12872;DHT22;6504;53.766;9.626;2022-08-25T01:00:48;21.40;99.90
12872;DHT22;6504;53.766;9.626;2022-08-25T01:03:18;21.40;99.90
12872;DHT22;6504;53.766;9.626;2022-08-25T01:05:50;21.40;99.90
12872;DHT22;6504;53.766;9.626;2022-08-25T01:08:25;21.30;99.90
12872;DHT22;6504;53.766;9.626;2022-08-25T01:10:55;21.30;99.90
12872;DHT22;6504;53.766;9.626;2022-08-25T01:13:29;21.30;99.90
12872;DHT22;6504;53.766;9.626;2022-08-25T01:15:58;21.30;99.90
12872;DHT22;6504;53.766;9.626;2022-08-25T01:18:27;21.30;99.90
12872;DHT22;6504;53.766;9.626;2022-08-25T01:20:58;21.20;99.90
12872;DHT22;6504;53.766;9.626;2022-08-25T01:23:29;21.20;99.90
12872;DHT22;6504;53.766;9.626;2022-08-25T01:26:02;21.20;99.90
12872;DHT22;6504;53.766;9.626;2022-08-25T01:28:35;21.20;99.90
12872;DHT22;6504;53.766;9.626;2022-08-25T01:31:03;21.20;99.90
12872;DHT22;6504;53.766;9.626;2022-08-25T01:33:50;21.20;99.90
12872;DHT22;6504;53.766;9.626;2022-08-25T01:36:20;21.10;99.90
12872;DHT22;6504;53.766;9.626;2022-08-25T01:38:49;21.10;99.90
12872;DHT22;6504;53.766;9.626;2022-08-25T01:41:25;21.10;99.90
12872;DHT22;6504;53.766;9.626;2022-08-25T01:43:57;21.10;99.90
12872;DHT22;6504;53.766;9.626;2022-08-25T01:46:26;21.10;99.90
12872;DHT22;6504;53.766;9.626;2022-08-25T01:48:54;21.00;99.90
12872;DHT22;6504;53.766;9.626;2022-08-25T01:51:29;21.00;99.90
12872;DHT22;6504;53.766;9.626;2022-08-25T01:53:59;21.00;99.90
12872;DHT22;6504;53.766;9.626;2022-08-25T01:56:28;21.00;99.90
12872;DHT22;6504;53.766;9.626;2022-08-25T01:58:57;21.00;99.90
12872;DHT22;6504;53.766;9.626;2022-08-25T02:01:25;21.00;99.90
12872;DHT22;6504;53.766;9.626;2022-08-25T02:03:56;21.00;99.90
12872;DHT22;6504;53.766;9.626;2022-08-25T02:06:31;21.00;99.90
12872;DHT22;6504;53.766;9.626;2022-08-25T02:09:04;20.90;99.90
12872;DHT22;6504;53.766;9.626;2022-08-25T02:11:36;20.90;99.90
12872;DHT22;6504;53.766;9.626;2022-08-25T02:14:05;20.90;99.90
12872;DHT22;6504;53.766;9.626;2022-08-25T02:16:38;20.80;99.90
12872;DHT22;6504;53.766;9.626;2022-08-25T02:19:09;20.80;99.90
12872;DHT22;6504;53.766;9.626;2022-08-25T02:21:42;20.80;99.90
12872;DHT22;6504;53.766;9.626;2022-08-25T02:24:11;20.80;99.90
12872;DHT22;6504;53.766;9.626;2022-08-25T02:26:42;20.70;99.90
12872;DHT22;6504;53.766;9.626;2022-08-25T02:29:10;20.70;99.90
12872;DHT22;6504;53.766;9.626;2022-08-25T02:31:43;20.70;99.90
12872;DHT22;6504;53.766;9.626;2022-08-25T02:34:11;20.70;99.90
12872;DHT22;6504;53.766;9.626;2022-08-25T02:36:42;20.70;99.90
12872;DHT22;6504;53.766;9.626;2022-08-25T02:39:13;20.70;99.90
12872;DHT22;6504;53.766;9.626;2022-08-25T02:41:41;20.70;99.90
12872;DHT22;6504;53.766;9.626;2022-08-25T02:44:12;20.70;99.90
12872;DHT22;6504;53.766;9.626;2022-08-25T02:46:41;20.60;99.90
12872;DHT22;6504;53.766;9.626;2022-08-25T02:49:12;20.60;99.90
12872;DHT22;6504;53.766;9.626;2022-08-25T02:51:42;20.60;99.90
12872;DHT22;6504;53.766;9.626;2022-08-25T02:54:13;20.50;99.90
12872;DHT22;6504;53.766;9.626;2022-08-25T02:56:42;20.50;99.90
12872;DHT22;6504;53.766;9.626;2022-08-25T02:59:10;20.50;99.90
12872;DHT22;6504;53.766;9.626;2022-08-25T03:01:40;20.50;99.90
12872;DHT22;6504;53.766;9.626;2022-08-25T03:04:09;20.40;99.90
12872;DHT22;6504;53.766;9.626;2022-08-25T03:06:42;20.40;99.90
12872;DHT22;6504;53.766;9.626;2022-08-25T03:09:11;20.40;99.90
12872;DHT22;6504;53.766;9.626;2022-08-25T03:11:42;20.40;99.90
12872;DHT22;6504;53.766;9.626;2022-08-25T03:14:10;20.40;99.90
12872;DHT22;6504;53.766;9.626;2022-08-25T03:16:38;20.40;99.90
12872;DHT22;6504;53.766;9.626;2022-08-25T03:19:12;20.40;99.90
12872;DHT22;6504;53.766;9.626;2022-08-25T03:21:41;20.40;99.90
12872;DHT22;6504;53.766;9.626;2022-08-25T03:24:11;20.40;99.90
12872;DHT22;6504;53.766;9.626;2022-08-25T03:26:42;20.30;99.90
12872;DHT22;6504;53.766;9.626;2022-08-25T03:29:22;20.30;99.90
12872;DHT22;6504;53.766;9.626;2022-08-25T03:31:54;20.30;99.90
12872;DHT22;6504;53.766;9.626;2022-08-25T03:34:28;20.30;99.90
12872;DHT22;6504;53.766;9.626;2022-08-25T03:36:59;20.30;99.90
12872;DHT22;6504;53.766;9.626;2022-08-25T03:39:30;20.20;99.90
12872;DHT22;6504;53.766;9.626;2022-08-25T03:41:58;20.20;99.90
12872;DHT22;6504;53.766;9.626;2022-08-25T03:44:32;20.20;99.90
12872;DHT22;6504;53.766;9.626;2022-08-25T03:47:00;20.20;99.90
12872;DHT22;6504;53.766;9.626;2022-08-25T03:49:28;20.10;99.90
12872;DHT22;6504;53.766;9.626;2022-08-25T03:52:02;20.10;99.90
12872;DHT22;6504;53.766;9.626;2022-08-25T03:54:30;20.10;99.90
12872;DHT22;6504;53.766;9.626;2022-08-25T03:56:58;20.00;99.90
12872;DHT22;6504;53.766;9.626;2022-08-25T03:59:29;20.00;99.90
12872;DHT22;6504;53.766;9.626;2022-08-25T04:01:58;19.90;99.90
12872;DHT22;6504;53.766;9.626;2022-08-25T04:04:26;19.90;99.90
12872;DHT22;6504;53.766;9.626;2022-08-25T04:06:54;19.90;99.90
12872;DHT22;6504;53.766;9.626;2022-08-25T04:09:24;19.90;99.90
12872;DHT22;6504;53.766;9.626;2022-08-25T04:11:52;19.90;99.90
12872;DHT22;6504;53.766;9.626;2022-08-25T04:14:23;19.90;99.90
12872;DHT22;6504;53.766;9.626;2022-08-25T04:16:52;19.90;99.90
12872;DHT22;6504;53.766;9.626;2022-08-25T04:19:20;19.90;99.90
12872;DHT22;6504;53.766;9.626;2022-08-25T04:21:48;19.90;99.90
12872;DHT22;6504;53.766;9.626;2022-08-25T04:24:23;19.90;99.90
12872;DHT22;6504;53.766;9.626;2022-08-25T04:26:52;19.80;99.90
12872;DHT22;6504;53.766;9.626;2022-08-25T04:29:21;19.80;99.90
12872;DHT22;6504;53.766;9.626;2022-08-25T04:31:51;19.80;99.90
12872;DHT22;6504;53.766;9.626;2022-08-25T04:34:21;19.70;99.90
12872;DHT22;6504;53.766;9.626;2022-08-25T04:36:57;19.70;99.90
12872;DHT22;6504;53.766;9.626;2022-08-25T04:39:27;19.70;99.90
12872;DHT22;6504;53.766;9.626;2022-08-25T04:41:56;19.60;99.90
12872;DHT22;6504;53.766;9.626;2022-08-25T04:44:27;19.60;99.90
12872;DHT22;6504;53.766;9.626;2022-08-25T04:46:59;19.60;99.90
12872;DHT22;6504;53.766;9.626;2022-08-25T04:49:27;19.60;99.90
12872;DHT22;6504;53.766;9.626;2022-08-25T04:51:59;19.60;99.90
12872;DHT22;6504;53.766;9.626;2022-08-25T04:54:28;19.60;99.90
12872;DHT22;6504;53.766;9.626;2022-08-25T04:57:03;19.60;99.90
12872;DHT22;6504;53.766;9.626;2022-08-25T04:59:34;19.60;99.90
12872;DHT22;6504;53.766;9.626;2022-08-25T05:02:03;19.60;99.90
12872;DHT22;6504;53.766;9.626;2022-08-25T05:04:34;19.60;99.90
12872;DHT22;6504;53.766;9.626;2022-08-25T05:07:03;19.50;99.90
12872;DHT22;6504;53.766;9.626;2022-08-25T05:09:33;19.50;99.90
12872;DHT22;6504;53.766;9.626;2022-08-25T05:12:03;19.50;99.90
12872;DHT22;6504;53.766;9.626;2022-08-25T05:14:32;19.40;99.90
12872;DHT22;6504;53.766;9.626;2022-08-25T05:17:03;19.50;99.90
12872;DHT22;6504;53.766;9.626;2022-08-25T05:19:32;19.40;99.90
12872;DHT22;6504;53.766;9.626;2022-08-25T05:22:05;19.40;99.90
12872;DHT22;6504;53.766;9.626;2022-08-25T05:24:38;19.40;99.90
12872;DHT22;6504;53.766;9.626;2022-08-25T05:27:06;19.50;99.90
12872;DHT22;6504;53.766;9.626;2022-08-25T05:29:37;19.50;99.90
12872;DHT22;6504;53.766;9.626;2022-08-25T05:32:05;19.50;99.90
12872;DHT22;6504;53.766;9.626;2022-08-25T05:34:34;19.40;99.90
12872;DHT22;6504;53.766;9.626;2022-08-25T05:37:03;19.40;99.90
12872;DHT22;6504;53.766;9.626;2022-08-25T05:39:37;19.50;99.90
12872;DHT22;6504;53.766;9.626;2022-08-25T05:42:05;19.50;99.90
12872;DHT22;6504;53.766;9.626;2022-08-25T05:44:34;19.50;99.90
12872;DHT22;6504;53.766;9.626;2022-08-25T05:47:05;19.50;99.90
12872;DHT22;6504;53.766;9.626;2022-08-25T05:49:33;19.50;99.90
12872;DHT22;6504;53.766;9.626;2022-08-25T05:52:01;19.50;99.90
12872;DHT22;6504;53.766;9.626;2022-08-25T05:54:30;19.50;99.90
12872;DHT22;6504;53.766;9.626;2022-08-25T05:57:00;19.60;99.90
12872;DHT22;6504;53.766;9.626;2022-08-25T05:59:32;19.60;99.90
12872;DHT22;6504;53.766;9.626;2022-08-25T06:02:00;19.60;99.90
12872;DHT22;6504;53.766;9.626;2022-08-25T06:04:46;19.70;99.90
12872;DHT22;6504;53.766;9.626;2022-08-25T06:07:14;19.70;99.90
12872;DHT22;6504;53.766;9.626;2022-08-25T06:09:42;19.80;99.90
12872;DHT22;6504;53.766;9.626;2022-08-25T06:12:16;19.80;99.90
12872;DHT22;6504;53.766;9.626;2022-08-25T06:14:45;19.80;99.90
12872;DHT22;6504;53.766;9.626;2022-08-25T06:17:17;19.80;99.90
12872;DHT22;6504;53.766;9.626;2022-08-25T06:19:45;19.90;99.90
12872;DHT22;6504;53.766;9.626;2022-08-25T06:22:13;19.90;99.90
12872;DHT22;6504;53.766;9.626;2022-08-25T06:24:48;19.80;99.90
12872;DHT22;6504;53.766;9.626;2022-08-25T06:27:18;19.90;99.90
12872;DHT22;6504;53.766;9.626;2022-08-25T06:29:46;19.90;99.90
12872;DHT22;6504;53.766;9.626;2022-08-25T06:32:19;19.90;99.90
12872;DHT22;6504;53.766;9.626;2022-08-25T06:34:47;19.90;99.90
12872;DHT22;6504;53.766;9.626;2022-08-25T06:37:16;19.90;99.90
12872;DHT22;6504;53.766;9.626;2022-08-25T06:39:49;19.90;99.90
12872;DHT22;6504;53.766;9.626;2022-08-25T06:42:21;20.00;99.90
12872;DHT22;6504;53.766;9.626;2022-08-25T06:44:49;20.00;99.90
12872;DHT22;6504;53.766;9.626;2022-08-25T06:47:18;20.00;99.90
12872;DHT22;6504;53.766;9.626;2022-08-25T06:49:46;20.10;99.90
12872;DHT22;6504;53.766;9.626;2022-08-25T06:52:15;20.10;99.90
12872;DHT22;6504;53.766;9.626;2022-08-25T06:54:43;20.10;99.90
12872;DHT22;6504;53.766;9.626;2022-08-25T06:57:15;20.10;99.90
12872;DHT22;6504;53.766;9.626;2022-08-25T06:59:44;20.10;99.90
12872;DHT22;6504;53.766;9.626;2022-08-25T07:02:21;20.10;99.90
12872;DHT22;6504;53.766;9.626;2022-08-25T07:04:52;20.10;99.90
12872;DHT22;6504;53.766;9.626;2022-08-25T07:07:20;20.10;99.90
12872;DHT22;6504;53.766;9.626;2022-08-25T07:09:49;20.20;99.90
12872;DHT22;6504;53.766;9.626;2022-08-25T07:12:17;20.20;99.90
12872;DHT22;6504;53.766;9.626;2022-08-25T07:14:46;20.20;99.90
12872;DHT22;6504;53.766;9.626;2022-08-25T07:17:34;20.20;99.90
12872;DHT22;6504;53.766;9.626;2022-08-25T07:20:05;20.30;99.90
12872;DHT22;6504;53.766;9.626;2022-08-25T07:22:33;20.30;99.90
12872;DHT22;6504;53.766;9.626;2022-08-25T07:25:02;20.30;99.90
12872;DHT22;6504;53.766;9.626;2022-08-25T07:27:30;20.30;99.90
12872;DHT22;6504;53.766;9.626;2022-08-25T07:30:00;20.40;99.90
12872;DHT22;6504;53.766;9.626;2022-08-25T07:32:30;20.40;99.90
12872;DHT22;6504;53.766;9.626;2022-08-25T07:34:59;20.40;99.90
12872;DHT22;6504;53.766;9.626;2022-08-25T07:37:49;20.50;99.90
12872;DHT22;6504;53.766;9.626;2022-08-25T07:40:25;20.50;99.90
12872;DHT22;6504;53.766;9.626;2022-08-25T07:43:18;20.60;99.90
12872;DHT22;6504;53.766;9.626;2022-08-25T07:46:10;20.70;99.90
12872;DHT22;6504;53.766;9.626;2022-08-25T07:48:51;20.70;99.90
12872;DHT22;6504;53.766;9.626;2022-08-25T07:51:34;20.70;99.90
12872;DHT22;6504;53.766;9.626;2022-08-25T07:54:45;20.80;99.90
12872;DHT22;6504;53.766;9.626;2022-08-25T08:01:29;20.80;99.90
12872;DHT22;6504;53.766;9.626;2022-08-25T08:04:52;20.80;99.90
12872;DHT22;6504;53.766;9.626;2022-08-25T08:07:32;20.80;99.90
12872;DHT22;6504;53.766;9.626;2022-08-25T08:10:16;20.80;99.90
12872;DHT22;6504;53.766;9.626;2022-08-25T08:13:41;20.90;99.90
12872;DHT22;6504;53.766;9.626;2022-08-25T08:16:15;20.90;99.90
12872;DHT22;6504;53.766;9.626;2022-08-25T08:18:48;20.90;99.90
12872;DHT22;6504;53.766;9.626;2022-08-25T08:21:20;20.90;99.90
12872;DHT22;6504;53.766;9.626;2022-08-25T08:23:50;20.80;99.90
12872;DHT22;6504;53.766;9.626;2022-08-25T08:26:25;20.90;99.90
12872;DHT22;6504;53.766;9.626;2022-08-25T08:29:14;20.80;99.90
12872;DHT22;6504;53.766;9.626;2022-08-25T08:31:42;20.80;99.90
12872;DHT22;6504;53.766;9.626;2022-08-25T08:34:16;20.80;99.90
12872;DHT22;6504;53.766;9.626;2022-08-25T08:36:44;20.90;99.90
12872;DHT22;6504;53.766;9.626;2022-08-25T08:39:12;20.90;99.90
12872;DHT22;6504;53.766;9.626;2022-08-25T08:41:52;20.90;99.90
12872;DHT22;6504;53.766;9.626;2022-08-25T08:44:57;20.90;99.90
12872;DHT22;6504;53.766;9.626;2022-08-25T08:47:41;20.90;99.90
12872;DHT22;6504;53.766;9.626;2022-08-25T08:50:23;20.90;99.90
12872;DHT22;6504;53.766;9.626;2022-08-25T08:53:04;20.90;99.90
12872;DHT22;6504;53.766;9.626;2022-08-25T08:55:40;20.90;99.90
12872;DHT22;6504;53.766;9.626;2022-08-25T08:58:17;21.00;99.90
12872;DHT22;6504;53.766;9.626;2022-08-25T09:00:56;21.00;99.90
12872;DHT22;6504;53.766;9.626;2022-08-25T09:03:33;21.10;99.90
12872;DHT22;6504;53.766;9.626;2022-08-25T09:06:11;21.20;99.90
12872;DHT22;6504;53.766;9.626;2022-08-25T09:08:43;21.20;99.90
12872;DHT22;6504;53.766;9.626;2022-08-25T09:11:20;21.30;99.90
12872;DHT22;6504;53.766;9.626;2022-08-25T09:14:06;21.30;99.90
12872;DHT22;6504;53.766;9.626;2022-08-25T09:16:41;21.40;99.90
12872;DHT22;6504;53.766;9.626;2022-08-25T09:19:46;21.40;99.90
12872;DHT22;6504;53.766;9.626;2022-08-25T09:22:33;21.40;99.90
12872;DHT22;6504;53.766;9.626;2022-08-25T09:25:13;21.40;99.90
12872;DHT22;6504;53.766;9.626;2022-08-25T09:28:06;21.40;99.90
12872;DHT22;6504;53.766;9.626;2022-08-25T09:30:43;21.50;99.90
12872;DHT22;6504;53.766;9.626;2022-08-25T09:33:23;21.50;99.90
12872;DHT22;6504;53.766;9.626;2022-08-25T09:35:52;21.60;99.90
12872;DHT22;6504;53.766;9.626;2022-08-25T09:38:25;21.60;99.90
12872;DHT22;6504;53.766;9.626;2022-08-25T09:41:00;21.70;99.90
12872;DHT22;6504;53.766;9.626;2022-08-25T09:43:31;21.80;99.90
12872;DHT22;6504;53.766;9.626;2022-08-25T09:46:02;21.90;99.90
12872;DHT22;6504;53.766;9.626;2022-08-25T09:48:45;22.00;99.90
12872;DHT22;6504;53.766;9.626;2022-08-25T09:51:28;22.10;99.90
12872;DHT22;6504;53.766;9.626;2022-08-25T09:54:19;22.20;99.90
12872;DHT22;6504;53.766;9.626;2022-08-25T09:57:26;22.30;99.90
12872;DHT22;6504;53.766;9.626;2022-08-25T09:59:56;22.30;99.90
12872;DHT22;6504;53.766;9.626;2022-08-25T10:02:28;22.40;99.90
12872;DHT22;6504;53.766;9.626;2022-08-25T10:04:56;22.50;99.90
12872;DHT22;6504;53.766;9.626;2022-08-25T10:07:29;22.60;99.90
12872;DHT22;6504;53.766;9.626;2022-08-25T10:10:03;22.70;99.90
12872;DHT22;6504;53.766;9.626;2022-08-25T10:12:39;22.80;99.90
12872;DHT22;6504;53.766;9.626;2022-08-25T10:15:16;22.90;99.90
12872;DHT22;6504;53.766;9.626;2022-08-25T10:18:21;23.00;99.90
12872;DHT22;6504;53.766;9.626;2022-08-25T10:21:09;23.20;99.90
12872;DHT22;6504;53.766;9.626;2022-08-25T10:23:48;23.30;99.90
12872;DHT22;6504;53.766;9.626;2022-08-25T10:26:31;23.50;99.90
12872;DHT22;6504;53.766;9.626;2022-08-25T10:29:20;23.60;99.90
12872;DHT22;6504;53.766;9.626;2022-08-25T10:32:08;23.80;99.90
12872;DHT22;6504;53.766;9.626;2022-08-25T10:34:45;24.00;99.90
12872;DHT22;6504;53.766;9.626;2022-08-25T10:37:30;24.10;99.90
12872;DHT22;6504;53.766;9.626;2022-08-25T10:40:11;24.30;99.90
12872;DHT22;6504;53.766;9.626;2022-08-25T10:42:57;24.40;99.90
12872;DHT22;6504;53.766;9.626;2022-08-25T10:45:29;24.50;99.90
12872;DHT22;6504;53.766;9.626;2022-08-25T10:48:43;24.60;99.90
12872;DHT22;6504;53.766;9.626;2022-08-25T10:51:31;24.80;99.90
12872;DHT22;6504;53.766;9.626;2022-08-25T10:54:07;25.00;99.90
12872;DHT22;6504;53.766;9.626;2022-08-25T10:56:54;25.10;99.90
12872;DHT22;6504;53.766;9.626;2022-08-25T10:59:46;25.30;99.90
12872;DHT22;6504;53.766;9.626;2022-08-25T11:05:27;25.50;99.90
12872;DHT22;6504;53.766;9.626;2022-08-25T11:08:04;25.60;99.90
12872;DHT22;6504;53.766;9.626;2022-08-25T11:10:40;25.70;99.90
12872;DHT22;6504;53.766;9.626;2022-08-25T11:13:14;25.80;99.90
12872;DHT22;6504;53.766;9.626;2022-08-25T11:15:53;25.90;99.90
12872;DHT22;6504;53.766;9.626;2022-08-25T11:18:56;26.00;99.90
12872;DHT22;6504;53.766;9.626;2022-08-25T11:21:32;26.20;99.90
12872;DHT22;6504;53.766;9.626;2022-08-25T11:24:21;26.30;99.90
12872;DHT22;6504;53.766;9.626;2022-08-25T11:26:55;26.40;99.90
12872;DHT22;6504;53.766;9.626;2022-08-25T11:29:30;26.50;99.90
12872;DHT22;6504;53.766;9.626;2022-08-25T11:32:04;26.60;99.90
12872;DHT22;6504;53.766;9.626;2022-08-25T11:34:36;26.60;99.90
12872;DHT22;6504;53.766;9.626;2022-08-25T11:37:19;26.70;99.90
12872;DHT22;6504;53.766;9.626;2022-08-25T11:43:01;26.90;99.90
12872;DHT22;6504;53.766;9.626;2022-08-25T11:45:49;27.00;99.90
12872;DHT22;6504;53.766;9.626;2022-08-25T11:48:36;27.00;99.90
12872;DHT22;6504;53.766;9.626;2022-08-25T11:51:10;27.20;99.90
12872;DHT22;6504;53.766;9.626;2022-08-25T11:53:40;27.20;99.90
12872;DHT22;6504;53.766;9.626;2022-08-25T11:56:30;27.20;99.90
12872;DHT22;6504;53.766;9.626;2022-08-25T11:59:01;27.20;99.90
12872;DHT22;6504;53.766;9.626;2022-08-25T12:02:04;27.20;99.90
12872;DHT22;6504;53.766;9.626;2022-08-25T12:04:39;27.30;99.90
12872;DHT22;6504;53.766;9.626;2022-08-25T12:07:24;27.30;99.90
12872;DHT22;6504;53.766;9.626;2022-08-25T12:10:23;27.40;99.90
12872;DHT22;6504;53.766;9.626;2022-08-25T12:13:25;27.50;99.90
12872;DHT22;6504;53.766;9.626;2022-08-25T12:15:59;27.60;99.90
12872;DHT22;6504;53.766;9.626;2022-08-25T12:18:40;27.70;99.90
12872;DHT22;6504;53.766;9.626;2022-08-25T12:24:10;27.80;99.90
12872;DHT22;6504;53.766;9.626;2022-08-25T12:26:53;27.90;99.90
12872;DHT22;6504;53.766;9.626;2022-08-25T12:29:40;28.00;99.90
12872;DHT22;6504;53.766;9.626;2022-08-25T12:32:39;28.20;99.90
12872;DHT22;6504;53.766;9.626;2022-08-25T12:35:36;28.20;99.90
12872;DHT22;6504;53.766;9.626;2022-08-25T12:38:15;28.30;99.90
12872;DHT22;6504;53.766;9.626;2022-08-25T12:40:57;28.40;99.90
12872;DHT22;6504;53.766;9.626;2022-08-25T12:43:29;28.40;99.90
12872;DHT22;6504;53.766;9.626;2022-08-25T12:46:31;28.40;99.90
12872;DHT22;6504;53.766;9.626;2022-08-25T12:49:02;28.40;99.90
12872;DHT22;6504;53.766;9.626;2022-08-25T12:51:57;28.40;99.90
12872;DHT22;6504;53.766;9.626;2022-08-25T12:54:44;28.40;99.90
12872;DHT22;6504;53.766;9.626;2022-08-25T12:57:25;28.40;99.90
12872;DHT22;6504;53.766;9.626;2022-08-25T12:59:58;28.40;99.90
12872;DHT22;6504;53.766;9.626;2022-08-25T13:02:57;28.50;99.90
12872;DHT22;6504;53.766;9.626;2022-08-25T13:05:45;28.50;99.90
12872;DHT22;6504;53.766;9.626;2022-08-25T13:08:54;28.60;99.90
12872;DHT22;6504;53.766;9.626;2022-08-25T13:11:31;28.60;99.90
12872;DHT22;6504;53.766;9.626;2022-08-25T13:14:07;28.60;99.90
12872;DHT22;6504;53.766;9.626;2022-08-25T13:16:51;28.60;99.90
12872;DHT22;6504;53.766;9.626;2022-08-25T13:19:20;28.50;99.90
12872;DHT22;6504;53.766;9.626;2022-08-25T13:21:48;28.60;99.90
12872;DHT22;6504;53.766;9.626;2022-08-25T13:24:23;28.60;99.90
12872;DHT22;6504;53.766;9.626;2022-08-25T13:27:09;28.60;99.90
12872;DHT22;6504;53.766;9.626;2022-08-25T13:29:51;28.60;99.90
12872;DHT22;6504;53.766;9.626;2022-08-25T13:32:27;28.60;99.90
12872;DHT22;6504;53.766;9.626;2022-08-25T13:35:11;28.70;99.90
12872;DHT22;6504;53.766;9.626;2022-08-25T13:37:43;28.70;99.90
12872;DHT22;6504;53.766;9.626;2022-08-25T13:40:14;28.70;99.90
12872;DHT22;6504;53.766;9.626;2022-08-25T13:42:47;28.70;99.90
12872;DHT22;6504;53.766;9.626;2022-08-25T13:45:23;28.60;99.90
12872;DHT22;6504;53.766;9.626;2022-08-25T13:47:52;28.40;99.90
12872;DHT22;6504;53.766;9.626;2022-08-25T13:50:31;28.40;99.90
12872;DHT22;6504;53.766;9.626;2022-08-25T13:53:03;28.40;99.90
12872;DHT22;6504;53.766;9.626;2022-08-25T13:55:36;28.40;99.90
12872;DHT22;6504;53.766;9.626;2022-08-25T13:58:25;28.50;99.90
12872;DHT22;6504;53.766;9.626;2022-08-25T14:01:14;28.40;99.90
12872;DHT22;6504;53.766;9.626;2022-08-25T14:04:28;28.40;99.90
12872;DHT22;6504;53.766;9.626;2022-08-25T14:07:12;28.40;99.90
12872;DHT22;6504;53.766;9.626;2022-08-25T14:09:47;28.40;99.90
12872;DHT22;6504;53.766;9.626;2022-08-25T14:12:37;28.50;99.90
12872;DHT22;6504;53.766;9.626;2022-08-25T14:15:11;28.50;99.90
12872;DHT22;6504;53.766;9.626;2022-08-25T14:17:45;28.50;99.90
12872;DHT22;6504;53.766;9.626;2022-08-25T14:20:19;28.50;99.90
12872;DHT22;6504;53.766;9.626;2022-08-25T14:22:56;28.50;99.90
12872;DHT22;6504;53.766;9.626;2022-08-25T14:25:31;28.40;99.90
12872;DHT22;6504;53.766;9.626;2022-08-25T14:28:02;28.50;99.90
12872;DHT22;6504;53.766;9.626;2022-08-25T14:31:00;28.50;99.90
12872;DHT22;6504;53.766;9.626;2022-08-25T14:33:34;28.50;99.90
12872;DHT22;6504;53.766;9.626;2022-08-25T14:36:18;28.60;99.90
12872;DHT22;6504;53.766;9.626;2022-08-25T14:38:53;28.60;99.90
12872;DHT22;6504;53.766;9.626;2022-08-25T14:41:26;28.60;99.90
12872;DHT22;6504;53.766;9.626;2022-08-25T14:44:00;28.70;99.90
12872;DHT22;6504;53.766;9.626;2022-08-25T14:46:36;28.60;99.90
12872;DHT22;6504;53.766;9.626;2022-08-25T14:49:15;28.60;99.90
12872;DHT22;6504;53.766;9.626;2022-08-25T14:51:55;28.70;99.90
12872;DHT22;6504;53.766;9.626;2022-08-25T14:54:26;28.80;99.90
12872;DHT22;6504;53.766;9.626;2022-08-25T14:57:47;28.80;99.90
12872;DHT22;6504;53.766;9.626;2022-08-25T15:00:04;28.90;99.90
12872;DHT22;6504;53.766;9.626;2022-08-25T15:02:48;28.80;99.90
12872;DHT22;6504;53.766;9.626;2022-08-25T15:05:24;28.80;99.90
12872;DHT22;6504;53.766;9.626;2022-08-25T15:07:58;28.70;99.90
12872;DHT22;6504;53.766;9.626;2022-08-25T15:10:52;28.70;99.90
12872;DHT22;6504;53.766;9.626;2022-08-25T15:13:21;28.70;99.90
12872;DHT22;6504;53.766;9.626;2022-08-25T15:15:51;28.60;99.90
12872;DHT22;6504;53.766;9.626;2022-08-25T15:18:31;28.70;99.90
12872;DHT22;6504;53.766;9.626;2022-08-25T15:21:09;28.70;99.90
12872;DHT22;6504;53.766;9.626;2022-08-25T15:24:04;28.70;99.90
12872;DHT22;6504;53.766;9.626;2022-08-25T15:27:02;28.70;99.90
12872;DHT22;6504;53.766;9.626;2022-08-25T15:29:41;28.60;99.90
12872;DHT22;6504;53.766;9.626;2022-08-25T15:32:12;28.60;99.90
12872;DHT22;6504;53.766;9.626;2022-08-25T15:35:22;28.60;99.90
12872;DHT22;6504;53.766;9.626;2022-08-25T15:37:56;28.50;99.90
12872;DHT22;6504;53.766;9.626;2022-08-25T15:41:07;28.40;99.90
12872;DHT22;6504;53.766;9.626;2022-08-25T15:43:26;28.40;99.90
12872;DHT22;6504;53.766;9.626;2022-08-25T15:46:07;28.40;99.90
12872;DHT22;6504;53.766;9.626;2022-08-25T15:49:07;28.50;99.90
12872;DHT22;6504;53.766;9.626;2022-08-25T15:51:57;28.50;99.90
12872;DHT22;6504;53.766;9.626;2022-08-25T15:54:50;28.60;99.90
12872;DHT22;6504;53.766;9.626;2022-08-25T15:57:51;28.60;99.90
12872;DHT22;6504;53.766;9.626;2022-08-25T16:00:28;28.60;99.90
12872;DHT22;6504;53.766;9.626;2022-08-25T16:03:08;28.60;99.90
12872;DHT22;6504;53.766;9.626;2022-08-25T16:05:45;28.60;99.90
12872;DHT22;6504;53.766;9.626;2022-08-25T16:08:35;28.60;99.90
12872;DHT22;6504;53.766;9.626;2022-08-25T16:11:16;28.60;99.90
12872;DHT22;6504;53.766;9.626;2022-08-25T16:14:26;28.60;99.90
12872;DHT22;6504;53.766;9.626;2022-08-25T16:17:33;28.50;99.90
12872;DHT22;6504;53.766;9.626;2022-08-25T16:20:46;28.40;99.90
12872;DHT22;6504;53.766;9.626;2022-08-25T16:23:51;28.30;99.90
12872;DHT22;6504;53.766;9.626;2022-08-25T16:26:26;28.30;99.90
12872;DHT22;6504;53.766;9.626;2022-08-25T16:29:04;28.20;99.90
12872;DHT22;6504;53.766;9.626;2022-08-25T16:32:39;28.20;99.90
12872;DHT22;6504;53.766;9.626;2022-08-25T16:35:48;28.10;99.90
12872;DHT22;6504;53.766;9.626;2022-08-25T16:38:34;28.00;99.90
12872;DHT22;6504;53.766;9.626;2022-08-25T16:41:24;27.90;99.90
12872;DHT22;6504;53.766;9.626;2022-08-25T16:44:37;27.90;99.90
12872;DHT22;6504;53.766;9.626;2022-08-25T16:47:44;27.80;99.90
12872;DHT22;6504;53.766;9.626;2022-08-25T16:50:33;27.80;99.90
12872;DHT22;6504;53.766;9.626;2022-08-25T16:53:04;27.70;99.90
12872;DHT22;6504;53.766;9.626;2022-08-25T16:56:09;27.60;99.90
12872;DHT22;6504;53.766;9.626;2022-08-25T16:58:57;27.60;99.90
12872;DHT22;6504;53.766;9.626;2022-08-25T17:02:19;27.40;99.90